Time,TemperatureF,DewpointF,PressureIn,WindDirection,WindDirectionDegrees,WindSpeedMPH,WindSpeedGustMPH,Humidity,HourlyPrecipIn,Conditions,Clouds,dailyrainin,SoftwareType,DateUTC
2013-01-19 00:04:00,50.8,8.9,25.11,East,81,2.0,-999.0,18,-99.99,,,-99.99,dwt +perl,2013-01-19 08:04:00,
2013-01-19 00:09:00,51.0,6.4,25.11,East,81,3.0,-999.0,16,-99.99,,,-99.99,dwt +perl,2013-01-19 08:09:00,
2013-01-19 00:14:00,51.3,3.8,25.11,East,81,3.0,-999.0,14,-99.99,,,-99.99,dwt +perl,2013-01-19 08:14:00,
2013-01-19 00:19:00,52.0,1.0,25.11,East,81,3.0,-999.0,12,-99.99,,,-99.99,dwt +perl,2013-01-19 08:19:00,
2013-01-19 00:24:00,52.2,1.1,25.11,East,81,3.0,-999.0,12,-99.99,,,-99.99,dwt +perl,2013-01-19 08:24:00,
2013-01-19 00:29:00,52.3,3.0,25.11,East,81,2.0,-999.0,13,-99.99,,,-99.99,dwt +perl,2013-01-19 08:29:00,
2013-01-19 00:34:00,52.2,2.9,25.11,East,81,3.0,-999.0,13,-99.99,,,-99.99,dwt +perl,2013-01-19 08:34:00,
2013-01-19 00:39:00,52.1,2.8,25.11,East,81,2.0,-999.0,13,-99.99,,,-99.99,dwt +perl,2013-01-19 08:39:00,
2013-01-19 00:44:00,52.0,4.3,25.11,East,82,1.0,-999.0,14,-99.99,,,-99.99,dwt +perl,2013-01-19 08:44:00,
2013-01-19 00:49:00,51.7,2.5,25.11,East,81,3.0,-999.0,13,-99.99,,,-99.99,dwt +perl,2013-01-19 08:49:00,
2013-01-19 00:59:00,51.1,7.8,25.11,East,82,0.0,-999.0,17,-99.99,,,-99.99,dwt +perl,2013-01-19 08:59:00,
2013-01-19 01:04:00,50.9,3.4,25.11,East,81,2.0,-999.0,14,-99.99,,,-99.99,dwt +perl,2013-01-19 09:04:00,
2013-01-19 01:09:00,51.2,2.1,25.11,East,81,2.0,-999.0,13,-99.99,,,-99.99,dwt +perl,2013-01-19 09:09:00,
2013-01-19 01:14:00,51.2,3.7,25.11,East,81,2.0,-999.0,14,-99.99,,,-99.99,dwt +perl,2013-01-19 09:14:00,
2013-01-19 01:19:00,51.1,7.8,25.11,East,81,2.0,-999.0,17,-99.99,,,-99.99,dwt +perl,2013-01-19 09:19:00,
2013-01-19 01:29:00,50.7,3.3,25.11,East,81,2.0,-999.0,14,-99.99,,,-99.99,dwt +perl,2013-01-19 09:29:00,
2013-01-19 01:34:00,50.9,3.4,25.12,East,81,3.0,-999.0,14,-99.99,,,-99.99,dwt +perl,2013-01-19 09:34:00,
2013-01-19 01:39:00,50.9,7.7,25.11,East,81,2.0,-999.0,17,-99.99,,,-99.99,dwt +perl,2013-01-19 09:39:00,
2013-01-19 01:44:00,50.8,7.6,25.11,East,81,3.0,-999.0,17,-99.99,,,-99.99,dwt +perl,2013-01-19 09:44:00,
2013-01-19 01:49:00,50.5,9.8,25.11,East,83,1.0,-999.0,19,-99.99,,,-99.99,dwt +perl,2013-01-19 09:49:00,
2013-01-19 01:54:00,50.3,7.2,25.11,East,85,2.0,-999.0,17,-99.99,,,-99.99,dwt +perl,2013-01-19 09:54:00,
2013-01-19 01:59:00,50.2,10.7,25.11,East,84,3.0,-999.0,20,-99.99,,,-99.99,dwt +perl,2013-01-19 09:59:00,
2013-01-19 02:09:00,50.4,3.0,25.11,East,86,5.0,-999.0,14,-99.99,,,-99.99,dwt +perl,2013-01-19 10:09:00,
2013-01-19 02:14:00,51.1,2.0,25.11,ESE,112,4.0,-999.0,13,-99.99,,,-99.99,dwt +perl,2013-01-19 10:14:00,
2013-01-19 02:19:00,51.6,-1.1,25.11,ESE,112,3.0,-999.0,11,-99.99,,,-99.99,dwt +perl,2013-01-19 10:19:00,
2013-01-19 02:24:00,51.9,0.9,25.12,ESE,120,2.0,-999.0,12,-99.99,,,-99.99,dwt +perl,2013-01-19 10:24:00,
2013-01-19 02:29:00,51.9,0.9,25.12,SE,129,4.0,-999.0,12,-99.99,,,-99.99,dwt +perl,2013-01-19 10:29:00,
2013-01-19 02:34:00,51.8,0.8,25.12,SE,136,3.0,-999.0,12,-99.99,,,-99.99,dwt +perl,2013-01-19 10:34:00,
2013-01-19 02:39:00,51.9,-0.9,25.12,SE,146,3.0,-999.0,11,-99.99,,,-99.99,dwt +perl,2013-01-19 10:39:00,
2013-01-19 02:42:00,52.6,-2.4,25.12,South,183,7.0,-999.0,10,-99.99,,,-99.99,dwt +perl,2013-01-19 10:42:00,
2013-01-19 02:44:00,52.2,-2.7,25.12,South,179,7.0,-999.0,10,-99.99,,,-99.99,dwt +perl,2013-01-19 10:44:00,
2013-01-19 02:49:00,52.6,-2.4,25.12,South,183,7.0,-999.0,10,-99.99,,,-99.99,dwt +perl,2013-01-19 10:49:00,
2013-01-19 03:09:00,52.8,-2.2,25.12,SSW,197,4.0,-999.0,10,-99.99,,,-99.99,dwt +perl,2013-01-19 11:09:00,
2013-01-19 04:49:00,51.3,-1.4,25.12,ESE,122,4.0,-999.0,11,-99.99,,,-99.99,dwt +perl,2013-01-19 12:49:00,
2013-01-19 04:54:00,51.3,-1.4,25.12,SE,131,5.0,-999.0,11,-99.99,,,-99.99,dwt +perl,2013-01-19 12:54:00,
2013-01-19 04:59:00,51.3,-1.4,25.12,SE,131,3.0,-999.0,11,-99.99,,,-99.99,dwt +perl,2013-01-19 12:59:00,
2013-01-19 05:04:00,51.4,-3.3,25.12,SSE,153,6.0,-999.0,10,-99.99,,,-99.99,dwt +perl,2013-01-19 13:04:00,
2013-01-19 05:09:00,51.4,-3.3,25.12,SSE,156,2.0,-999.0,10,-99.99,,,-99.99,dwt +perl,2013-01-19 13:09:00,
2013-01-19 05:14:00,51.3,-3.4,25.12,ESE,121,4.0,-999.0,10,-99.99,,,-99.99,dwt +perl,2013-01-19 13:14:00,
2013-01-19 05:17:00,50.4,-0.2,25.12,ENE,67,0.0,-999.0,12,-99.99,,,-99.99,dwt +perl,2013-01-19 13:17:00,
2013-01-19 05:19:00,50.8,0.1,25.12,ENE,68,3.0,-999.0,12,-99.99,,,-99.99,dwt +perl,2013-01-19 13:19:00,
2013-01-19 05:24:00,50.4,-0.2,25.12,ENE,67,0.0,-999.0,12,-99.99,,,-99.99,dwt +perl,2013-01-19 13:24:00,
2013-01-19 05:34:00,50.3,-2.2,25.12,ESE,123,5.0,-999.0,11,-99.99,,,-99.99,dwt +perl,2013-01-19 13:34:00,
2013-01-19 05:39:00,51.0,-1.6,25.12,ESE,102,3.0,-999.0,11,-99.99,,,-99.99,dwt +perl,2013-01-19 13:39:00,
2013-01-19 05:44:00,50.8,-1.8,25.12,ENE,75,5.0,-999.0,11,-99.99,,,-99.99,dwt +perl,2013-01-19 13:44:00,
2013-01-19 05:49:00,50.6,-0.1,25.12,NE,54,4.0,-999.0,12,-99.99,,,-99.99,dwt +perl,2013-01-19 13:49:00,
2013-01-19 05:54:00,50.1,1.2,25.12,ENE,64,3.0,-999.0,13,-99.99,,,-99.99,dwt +perl,2013-01-19 13:54:00,
2013-01-19 05:59:00,49.6,0.8,25.13,NE,54,3.0,-999.0,13,-99.99,,,-99.99,dwt +perl,2013-01-19 13:59:00,
2013-01-19 06:04:00,49.2,2.1,25.13,ENE,75,4.0,-999.0,14,-99.99,,,-99.99,dwt +perl,2013-01-19 14:04:00,
2013-01-19 06:09:00,49.1,2.0,25.13,East,80,6.0,-999.0,14,-99.99,,,-99.99,dwt +perl,2013-01-19 14:09:00,
2013-01-19 06:14:00,48.9,1.8,25.13,ENE,73,5.0,-999.0,14,-99.99,,,-99.99,dwt +perl,2013-01-19 14:14:00,
2013-01-19 06:19:00,48.8,3.2,25.13,ENE,60,2.0,-999.0,15,-99.99,,,-99.99,dwt +perl,2013-01-19 14:19:00,
2013-01-19 06:24:00,48.8,1.8,25.13,ENE,61,2.0,-999.0,14,-99.99,,,-99.99,dwt +perl,2013-01-19 14:24:00,
2013-01-19 06:29:00,49.1,0.4,25.13,SE,126,7.0,-999.0,13,-99.99,,,-99.99,dwt +perl,2013-01-19 14:29:00,
2013-01-19 06:32:00,50.4,-0.2,25.14,SE,126,7.0,-999.0,12,-99.99,,,-99.99,dwt +perl,2013-01-19 14:32:00,
2013-01-19 06:34:00,49.8,1.0,25.13,SE,127,6.0,-999.0,13,-99.99,,,-99.99,dwt +perl,2013-01-19 14:34:00,
2013-01-19 06:49:00,51.0,0.2,25.14,SE,144,3.0,-999.0,12,-99.99,,,-99.99,dwt +perl,2013-01-19 14:49:00,
2013-01-19 06:54:00,51.0,1.9,25.14,SSE,153,7.0,-999.0,13,-99.99,,,-99.99,dwt +perl,2013-01-19 14:54:00,
2013-01-19 06:59:00,51.2,2.1,25.14,South,181,8.0,-999.0,13,-99.99,,,-99.99,dwt +perl,2013-01-19 14:59:00,
2013-01-19 07:09:00,51.5,3.9,25.14,South,179,10.0,-999.0,14,-99.99,,,-99.99,dwt +perl,2013-01-19 15:09:00,
2013-01-19 07:14:00,51.4,3.8,25.14,South,188,8.0,-999.0,14,-99.99,,,-99.99,dwt +perl,2013-01-19 15:14:00,
2013-01-19 07:24:00,51.4,5.3,25.14,South,189,6.0,-999.0,15,-99.99,,,-99.99,dwt +perl,2013-01-19 15:24:00,
2013-01-19 07:29:00,51.6,5.5,25.14,South,179,7.0,-999.0,15,-99.99,,,-99.99,dwt +perl,2013-01-19 15:29:00,
2013-01-19 07:34:00,51.7,5.6,25.14,South,179,7.0,-999.0,15,-99.99,,,-99.99,dwt +perl,2013-01-19 15:34:00,
2013-01-19 07:44:00,52.2,7.4,25.14,South,178,8.0,-999.0,16,-99.99,,,-99.99,dwt +perl,2013-01-19 15:44:00,
2013-01-19 07:49:00,52.7,6.4,25.14,SSE,156,6.0,-999.0,15,-99.99,,,-99.99,dwt +perl,2013-01-19 15:49:00,
2013-01-19 07:54:00,53.2,3.7,25.14,SE,142,4.0,-999.0,13,-99.99,,,-99.99,dwt +perl,2013-01-19 15:54:00,
2013-01-19 07:59:00,53.6,5.6,25.14,ESE,116,3.0,-999.0,14,-99.99,,,-99.99,dwt +perl,2013-01-19 15:59:00,
2013-01-19 08:04:00,53.8,4.1,25.15,SE,127,5.0,-999.0,13,-99.99,,,-99.99,dwt +perl,2013-01-19 16:04:00,
2013-01-19 08:09:00,54.0,4.3,25.15,SE,134,6.0,-999.0,13,-99.99,,,-99.99,dwt +perl,2013-01-19 16:09:00,
2013-01-19 08:14:00,54.0,5.9,25.15,ESE,114,4.0,-999.0,14,-99.99,,,-99.99,dwt +perl,2013-01-19 16:14:00,
2013-01-19 08:19:00,54.0,7.4,25.15,SSE,165,3.0,-999.0,15,-99.99,,,-99.99,dwt +perl,2013-01-19 16:19:00,
2013-01-19 08:24:00,54.1,7.5,25.15,SSW,210,7.0,-999.0,15,-99.99,,,-99.99,dwt +perl,2013-01-19 16:24:00,
2013-01-19 08:29:00,54.2,7.6,25.15,SE,141,5.0,-999.0,15,-99.99,,,-99.99,dwt +perl,2013-01-19 16:29:00,
2013-01-19 08:34:00,54.3,10.4,25.15,SE,129,2.0,-999.0,17,-99.99,,,-99.99,dwt +perl,2013-01-19 16:34:00,
2013-01-19 08:39:00,54.2,7.6,25.15,ESE,116,5.0,-999.0,15,-99.99,,,-99.99,dwt +perl,2013-01-19 16:39:00,
2013-01-19 08:44:00,54.3,10.4,25.15,SE,128,8.0,-999.0,17,-99.99,,,-99.99,dwt +perl,2013-01-19 16:44:00,
2013-01-19 08:49:00,54.2,11.6,25.15,SE,125,3.0,-999.0,18,-99.99,,,-99.99,dwt +perl,2013-01-19 16:49:00,
2013-01-19 08:54:00,54.2,10.4,25.16,SE,137,3.0,-999.0,17,-99.99,,,-99.99,dwt +perl,2013-01-19 16:54:00,
2013-01-19 08:59:00,54.2,11.6,25.16,ESE,103,5.0,-999.0,18,-99.99,,,-99.99,dwt +perl,2013-01-19 16:59:00,
2013-01-19 09:04:00,54.4,11.8,25.16,SE,130,8.0,-999.0,18,-99.99,,,-99.99,dwt +perl,2013-01-19 17:04:00,
2013-01-19 09:14:00,54.9,10.9,25.16,ENE,63,5.0,-999.0,17,-99.99,,,-99.99,dwt +perl,2013-01-19 17:14:00,
2013-01-19 09:24:00,54.4,9.2,25.16,ENE,64,2.0,-999.0,16,-99.99,,,-99.99,dwt +perl,2013-01-19 17:24:00,
2013-01-19 09:29:00,54.6,10.7,25.16,ENE,67,4.0,-999.0,17,-99.99,,,-99.99,dwt +perl,2013-01-19 17:29:00,
2013-01-19 09:39:00,54.4,9.2,25.17,ESE,118,4.0,-999.0,16,-99.99,,,-99.99,dwt +perl,2013-01-19 17:39:00,
2013-01-19 09:44:00,54.7,10.8,25.17,ENE,68,7.0,-999.0,17,-99.99,,,-99.99,dwt +perl,2013-01-19 17:44:00,
2013-01-19 09:54:00,54.8,6.5,25.17,SE,127,8.0,-999.0,14,-99.99,,,-99.99,dwt +perl,2013-01-19 17:54:00,
2013-01-19 09:59:00,55.0,6.7,25.17,East,97,7.0,-999.0,14,-99.99,,,-99.99,dwt +perl,2013-01-19 17:59:00,
2013-01-19 10:04:00,55.4,7.0,25.17,NE,53,5.0,-999.0,14,-99.99,,,-99.99,dwt +perl,2013-01-19 18:04:00,
2013-01-19 10:09:00,55.5,8.6,25.17,ENE,57,0.0,-999.0,15,-99.99,,,-99.99,dwt +perl,2013-01-19 18:09:00,
2013-01-19 10:14:00,55.8,11.7,25.17,East,89,7.0,-999.0,17,-99.99,,,-99.99,dwt +perl,2013-01-19 18:14:00,
2013-01-19 10:19:00,55.9,10.4,25.17,East,100,1.0,-999.0,16,-99.99,,,-99.99,dwt +perl,2013-01-19 18:19:00,
2013-01-19 10:29:00,55.8,12.9,25.17,ENE,62,2.0,-999.0,18,-99.99,,,-99.99,dwt +perl,2013-01-19 18:29:00,
2013-01-19 10:39:00,55.9,14.3,25.17,NE,56,5.0,-999.0,19,-99.99,,,-99.99,dwt +perl,2013-01-19 18:39:00,
2013-01-19 10:44:00,55.9,10.4,25.16,East,81,13.0,-999.0,16,-99.99,,,-99.99,dwt +perl,2013-01-19 18:44:00,
2013-01-19 10:49:00,56.3,10.7,25.16,ENE,66,5.0,-999.0,16,-99.99,,,-99.99,dwt +perl,2013-01-19 18:49:00,
2013-01-19 10:54:00,56.9,9.8,25.16,ESE,122,7.0,-999.0,15,-99.99,,,-99.99,dwt +perl,2013-01-19 18:54:00,
2013-01-19 10:59:00,57.2,10.0,25.16,ESE,116,2.0,-999.0,15,-99.99,,,-99.99,dwt +perl,2013-01-19 18:59:00,
2013-01-19 11:04:00,57.5,11.7,25.16,ESE,108,3.0,-999.0,16,-99.99,,,-99.99,dwt +perl,2013-01-19 19:04:00,
2013-01-19 11:09:00,57.7,10.4,25.16,ESE,118,4.0,-999.0,15,-99.99,,,-99.99,dwt +perl,2013-01-19 19:09:00,
2013-01-19 11:19:00,57.1,8.4,25.16,SE,137,3.0,-999.0,14,-99.99,,,-99.99,dwt +perl,2013-01-19 19:19:00,
2013-01-19 11:29:00,57.5,15.6,25.15,ENE,66,3.0,-999.0,19,-99.99,,,-99.99,dwt +perl,2013-01-19 19:29:00,
2013-01-19 11:34:00,57.5,16.8,25.15,ENE,74,1.0,-999.0,20,-99.99,,,-99.99,dwt +perl,2013-01-19 19:34:00,
2013-01-19 11:44:00,57.7,15.7,25.14,ENE,71,5.0,-999.0,19,-99.99,,,-99.99,dwt +perl,2013-01-19 19:44:00,
2013-01-19 11:49:00,57.4,15.5,25.14,East,81,3.0,-999.0,19,-99.99,,,-99.99,dwt +perl,2013-01-19 19:49:00,
2013-01-19 11:59:00,56.3,15.8,25.14,ENE,65,8.0,-999.0,20,-99.99,,,-99.99,dwt +perl,2013-01-19 19:59:00,
2013-01-19 12:04:00,55.8,10.3,25.14,NE,44,6.0,-999.0,16,-99.99,,,-99.99,dwt +perl,2013-01-19 20:04:00,
2013-01-19 12:09:00,55.8,8.9,25.14,ENE,75,3.0,-999.0,15,-99.99,,,-99.99,dwt +perl,2013-01-19 20:09:00,
2013-01-19 12:14:00,55.7,8.8,25.14,ENE,62,2.0,-999.0,15,-99.99,,,-99.99,dwt +perl,2013-01-19 20:14:00,
2013-01-19 12:24:00,55.9,8.9,25.14,East,79,3.0,-999.0,15,-99.99,,,-99.99,dwt +perl,2013-01-19 20:24:00,
2013-01-19 12:29:00,55.6,12.8,25.13,East,82,2.0,-999.0,18,-99.99,,,-99.99,dwt +perl,2013-01-19 20:29:00,
2013-01-19 12:34:00,55.3,9.9,25.13,ENE,63,3.0,-999.0,16,-99.99,,,-99.99,dwt +perl,2013-01-19 20:34:00,
2013-01-19 12:39:00,55.0,9.6,25.13,ESE,116,9.0,-999.0,16,-99.99,,,-99.99,dwt +perl,2013-01-19 20:39:00,
2013-01-19 12:44:00,54.5,9.2,25.13,NE,56,5.0,-999.0,16,-99.99,,,-99.99,dwt +perl,2013-01-19 20:44:00,
2013-01-19 12:54:00,54.3,9.1,25.13,ESE,118,1.0,-999.0,16,-99.99,,,-99.99,dwt +perl,2013-01-19 20:54:00,
2013-01-19 12:59:00,54.4,13.0,25.13,East,91,3.0,-999.0,19,-99.99,,,-99.99,dwt +perl,2013-01-19 20:59:00,
2013-01-19 13:04:00,54.7,13.3,25.13,ENE,66,3.0,-999.0,19,-99.99,,,-99.99,dwt +perl,2013-01-19 21:04:00,
2013-01-19 13:09:00,54.9,13.4,25.13,ESE,107,4.0,-999.0,19,-99.99,,,-99.99,dwt +perl,2013-01-19 21:09:00,
2013-01-19 13:19:00,54.8,15.6,25.13,ENE,73,2.0,-999.0,21,-99.99,,,-99.99,dwt +perl,2013-01-19 21:19:00,
2013-01-19 13:24:00,54.8,14.5,25.13,East,85,3.0,-999.0,20,-99.99,,,-99.99,dwt +perl,2013-01-19 21:24:00,
2013-01-19 13:34:00,55.1,15.9,25.13,East,87,0.0,-999.0,21,-99.99,,,-99.99,dwt +perl,2013-01-19 21:34:00,
2013-01-19 13:39:00,54.9,16.8,25.13,East,86,2.0,-999.0,22,-99.99,,,-99.99,dwt +perl,2013-01-19 21:39:00,
2013-01-19 13:50:00,53.7,16.8,25.13,East,83,3.0,-999.0,23,-99.99,,,-99.99,dwt +perl,2013-01-19 21:50:00,
2013-01-19 13:59:00,53.6,17.7,25.13,ENE,75,2.0,-999.0,24,-99.99,,,-99.99,dwt +perl,2013-01-19 21:59:00,
2013-01-19 14:04:00,53.7,17.8,25.12,East,88,1.0,-999.0,24,-99.99,,,-99.99,dwt +perl,2013-01-19 22:04:00,
2013-01-19 14:14:00,54.5,11.9,25.12,ESE,110,10.0,-999.0,18,-99.99,,,-99.99,dwt +perl,2013-01-19 22:14:00,
2013-01-19 14:19:00,54.5,9.2,25.12,East,83,1.0,-999.0,16,-99.99,,,-99.99,dwt +perl,2013-01-19 22:19:00,
2013-01-19 14:29:00,54.5,14.3,25.12,SE,131,2.0,-999.0,20,-99.99,,,-99.99,dwt +perl,2013-01-19 22:29:00,
2013-01-19 14:34:00,54.1,13.9,25.12,ESE,122,5.0,-999.0,20,-99.99,,,-99.99,dwt +perl,2013-01-19 22:34:00,
2013-01-19 14:45:00,54.2,14.0,25.12,ESE,115,4.0,-999.0,20,-99.99,,,-99.99,dwt +perl,2013-01-19 22:45:00,
2013-01-19 14:54:00,54.8,10.8,25.12,ESE,109,3.0,-999.0,17,-99.99,,,-99.99,dwt +perl,2013-01-19 22:54:00,
2013-01-19 15:04:00,55.2,8.4,25.12,ENE,65,3.0,-999.0,15,-99.99,,,-99.99,dwt +perl,2013-01-19 23:04:00,
2013-01-19 15:09:00,54.9,8.1,25.12,ESE,102,11.0,-999.0,15,-99.99,,,-99.99,dwt +perl,2013-01-19 23:09:00,
2013-01-19 15:19:00,54.1,7.5,25.12,East,101,8.0,-999.0,15,-99.99,,,-99.99,dwt +perl,2013-01-19 23:19:00,
2013-01-19 15:29:00,54.2,7.6,25.12,ESE,120,5.0,-999.0,15,-99.99,,,-99.99,dwt +perl,2013-01-19 23:29:00,
2013-01-19 15:34:00,54.2,7.6,25.12,SE,128,7.0,-999.0,15,-99.99,,,-99.99,dwt +perl,2013-01-19 23:34:00,
2013-01-19 15:39:00,54.1,6.0,25.12,ESE,122,7.0,-999.0,14,-99.99,,,-99.99,dwt +perl,2013-01-19 23:39:00,
2013-01-19 15:44:00,54.2,4.4,25.12,ESE,110,2.0,-999.0,13,-99.99,,,-99.99,dwt +perl,2013-01-19 23:44:00,
2013-01-19 15:49:00,54.3,6.2,25.12,ENE,75,1.0,-999.0,14,-99.99,,,-99.99,dwt +perl,2013-01-19 23:49:00,
2013-01-19 15:54:00,54.2,7.6,25.12,East,100,6.0,-999.0,15,-99.99,,,-99.99,dwt +perl,2013-01-19 23:54:00,
2013-01-19 16:04:00,54.0,4.3,25.12,ESE,115,12.0,-999.0,13,-99.99,,,-99.99,dwt +perl,2013-01-20 00:04:00,
2013-01-19 16:14:00,54.1,6.0,25.12,SE,125,1.0,-999.0,14,-99.99,,,-99.99,dwt +perl,2013-01-20 00:14:00,
2013-01-19 16:19:00,54.1,4.4,25.12,ESE,120,7.0,-999.0,13,-99.99,,,-99.99,dwt +perl,2013-01-20 00:19:00,
2013-01-19 16:29:00,53.9,4.2,25.12,SSE,155,7.0,-999.0,13,-99.99,,,-99.99,dwt +perl,2013-01-20 00:29:00,
2013-01-19 16:34:00,53.9,4.2,25.12,SSE,150,3.0,-999.0,13,-99.99,,,-99.99,dwt +perl,2013-01-20 00:34:00,
2013-01-19 16:40:00,53.7,5.7,25.12,ESE,117,10.0,-999.0,14,-99.99,,,-99.99,dwt +perl,2013-01-20 00:40:00,
2013-01-19 16:49:00,53.5,5.5,25.12,SE,139,2.0,-999.0,14,-99.99,,,-99.99,dwt +perl,2013-01-20 00:49:00,
2013-01-19 16:59:00,53.4,5.4,25.12,SE,130,4.0,-999.0,14,-99.99,,,-99.99,dwt +perl,2013-01-20 00:59:00,
2013-01-19 17:04:00,53.2,3.7,25.12,SE,127,5.0,-999.0,13,-99.99,,,-99.99,dwt +perl,2013-01-20 01:04:00,
2013-01-19 17:14:00,52.5,4.7,25.12,ENE,73,4.0,-999.0,14,-99.99,,,-99.99,dwt +perl,2013-01-20 01:14:00,
2013-01-19 17:19:00,52.2,6.0,25.12,East,95,3.0,-999.0,15,-99.99,,,-99.99,dwt +perl,2013-01-20 01:19:00,
2013-01-19 17:29:00,51.4,5.3,25.12,East,101,4.0,-999.0,15,-99.99,,,-99.99,dwt +perl,2013-01-20 01:29:00,
2013-01-19 17:34:00,51.2,5.2,25.12,SE,125,6.0,-999.0,15,-99.99,,,-99.99,dwt +perl,2013-01-20 01:34:00,
2013-01-19 17:39:00,51.1,5.1,25.12,East,91,5.0,-999.0,15,-99.99,,,-99.99,dwt +perl,2013-01-20 01:39:00,
2013-01-19 17:49:00,51.1,3.6,25.12,ESE,118,7.0,-999.0,14,-99.99,,,-99.99,dwt +perl,2013-01-20 01:49:00,
2013-01-19 17:59:00,51.0,3.5,25.12,ESE,121,3.0,-999.0,14,-99.99,,,-99.99,dwt +perl,2013-01-20 01:59:00,
2013-01-19 18:19:00,51.1,3.6,25.12,ENE,76,7.0,-999.0,14,-99.99,,,-99.99,dwt +perl,2013-01-20 02:19:00,
2013-01-19 18:24:00,50.9,1.8,25.12,ESE,114,10.0,-999.0,13,-99.99,,,-99.99,dwt +perl,2013-01-20 02:24:00,
2013-01-19 18:29:00,50.8,4.8,25.12,NE,52,8.0,-999.0,15,-99.99,,,-99.99,dwt +perl,2013-01-20 02:29:00,
2013-01-19 18:34:00,50.5,4.6,25.12,East,89,6.0,-999.0,15,-99.99,,,-99.99,dwt +perl,2013-01-20 02:34:00,
2013-01-19 18:39:00,50.2,8.4,25.12,NE,56,4.0,-999.0,18,-99.99,,,-99.99,dwt +perl,2013-01-20 02:39:00,
2013-01-19 18:44:00,50.0,6.9,25.12,ESE,108,8.0,-999.0,17,-99.99,,,-99.99,dwt +perl,2013-01-20 02:44:00,
2013-01-19 18:49:00,50.0,4.2,25.13,SE,129,6.0,-999.0,15,-99.99,,,-99.99,dwt +perl,2013-01-20 02:49:00,
2013-01-19 18:55:00,50.3,5.8,25.13,SE,125,4.0,-999.0,16,-99.99,,,-99.99,dwt +perl,2013-01-20 02:55:00,
2013-01-19 19:09:00,50.7,3.3,25.13,NE,50,5.0,-999.0,14,-99.99,,,-99.99,dwt +perl,2013-01-20 03:09:00,
2013-01-19 19:14:00,50.7,3.3,25.13,ESE,114,12.0,-999.0,14,-99.99,,,-99.99,dwt +perl,2013-01-20 03:14:00,
2013-01-19 19:19:00,51.0,1.9,25.13,East,80,11.0,-999.0,13,-99.99,,,-99.99,dwt +perl,2013-01-20 03:19:00,
2013-01-19 19:24:00,51.1,2.0,25.13,East,100,15.0,-999.0,13,-99.99,,,-99.99,dwt +perl,2013-01-20 03:24:00,
2013-01-19 19:29:00,51.1,3.6,25.13,ENE,75,9.0,-999.0,14,-99.99,,,-99.99,dwt +perl,2013-01-20 03:29:00,
2013-01-19 19:39:00,50.1,5.7,25.13,East,93,13.0,-999.0,16,-99.99,,,-99.99,dwt +perl,2013-01-20 03:39:00,
2013-01-19 19:44:00,49.6,6.6,25.13,NE,51,9.0,-999.0,17,-99.99,,,-99.99,dwt +perl,2013-01-20 03:44:00,
2013-01-19 19:54:00,49.0,8.6,25.13,East,97,9.0,-999.0,19,-99.99,,,-99.99,dwt +perl,2013-01-20 03:54:00,
2013-01-19 19:57:00,48.6,9.4,25.14,NE,43,8.0,-999.0,20,-99.99,,,-99.99,dwt +perl,2013-01-20 03:57:00,
2013-01-19 19:59:00,48.7,8.3,25.14,East,79,9.0,-999.0,19,-99.99,,,-99.99,dwt +perl,2013-01-20 03:59:00,
2013-01-19 20:24:00,48.9,6.0,25.14,East,91,15.0,-999.0,17,-99.99,,,-99.99,dwt +perl,2013-01-20 04:24:00,
2013-01-19 20:29:00,49.2,5.0,25.14,East,99,15.0,-999.0,16,-99.99,,,-99.99,dwt +perl,2013-01-20 04:29:00,
2013-01-19 20:34:00,49.2,5.0,25.14,ENE,66,10.0,-999.0,16,-99.99,,,-99.99,dwt +perl,2013-01-20 04:34:00,
2013-01-19 20:39:00,49.4,5.1,25.14,NE,53,10.0,-999.0,16,-99.99,,,-99.99,dwt +perl,2013-01-20 04:39:00,
2013-01-19 20:49:00,49.5,5.2,25.15,East,95,7.0,-999.0,16,-99.99,,,-99.99,dwt +perl,2013-01-20 04:49:00,
2013-01-19 20:54:00,49.5,6.5,25.15,East,90,8.0,-999.0,17,-99.99,,,-99.99,dwt +perl,2013-01-20 04:54:00,
2013-01-19 21:04:00,49.7,5.4,25.15,East,89,14.0,-999.0,16,-99.99,,,-99.99,dwt +perl,2013-01-20 05:04:00,
2013-01-19 21:09:00,50.2,4.4,25.15,East,94,11.0,-999.0,15,-99.99,,,-99.99,dwt +perl,2013-01-20 05:09:00,
2013-01-19 21:14:00,50.5,3.1,25.15,SE,127,7.0,-999.0,14,-99.99,,,-99.99,dwt +perl,2013-01-20 05:14:00,
2013-01-19 21:19:00,50.6,3.2,25.15,ESE,112,5.0,-999.0,14,-99.99,,,-99.99,dwt +perl,2013-01-20 05:19:00,
2013-01-19 21:24:00,50.6,3.2,25.15,East,90,7.0,-999.0,14,-99.99,,,-99.99,dwt +perl,2013-01-20 05:24:00,
2013-01-19 21:29:00,50.7,3.3,25.16,East,85,14.0,-999.0,14,-99.99,,,-99.99,dwt +perl,2013-01-20 05:29:00,
2013-01-19 21:34:00,51.0,1.9,25.16,East,93,9.0,-999.0,13,-99.99,,,-99.99,dwt +perl,2013-01-20 05:34:00,
2013-01-19 21:44:00,51.1,2.0,25.16,ESE,120,8.0,-999.0,13,-99.99,,,-99.99,dwt +perl,2013-01-20 05:44:00,
2013-01-19 21:49:00,50.8,1.8,25.16,East,94,8.0,-999.0,13,-99.99,,,-99.99,dwt +perl,2013-01-20 05:49:00,
2013-01-19 21:54:00,50.9,1.8,25.16,ESE,109,5.0,-999.0,13,-99.99,,,-99.99,dwt +perl,2013-01-20 05:54:00,
2013-01-19 21:59:00,50.8,1.8,25.16,ESE,116,10.0,-999.0,13,-99.99,,,-99.99,dwt +perl,2013-01-20 05:59:00,
2013-01-19 22:04:00,50.6,3.2,25.16,East,85,14.0,-999.0,14,-99.99,,,-99.99,dwt +perl,2013-01-20 06:04:00,
2013-01-19 22:09:00,50.5,3.1,25.16,ESE,103,13.0,-999.0,14,-99.99,,,-99.99,dwt +perl,2013-01-20 06:09:00,
2013-01-19 22:14:00,50.6,3.2,25.16,ENE,73,10.0,-999.0,14,-99.99,,,-99.99,dwt +perl,2013-01-20 06:14:00,
2013-01-19 22:19:00,50.6,1.6,25.16,East,89,13.0,-999.0,13,-99.99,,,-99.99,dwt +perl,2013-01-20 06:19:00,
2013-01-19 22:24:00,50.8,1.8,25.17,East,99,17.0,-999.0,13,-99.99,,,-99.99,dwt +perl,2013-01-20 06:24:00,
2013-01-19 22:29:00,50.9,1.8,25.17,ESE,105,17.0,-999.0,13,-99.99,,,-99.99,dwt +perl,2013-01-20 06:29:00,
2013-01-19 22:34:00,51.1,2.0,25.17,ESE,104,9.0,-999.0,13,-99.99,,,-99.99,dwt +perl,2013-01-20 06:34:00,
2013-01-19 22:39:00,51.3,0.4,25.17,East,101,10.0,-999.0,12,-99.99,,,-99.99,dwt +perl,2013-01-20 06:39:00,
2013-01-19 22:44:00,51.0,1.9,25.17,ESE,119,7.0,-999.0,13,-99.99,,,-99.99,dwt +perl,2013-01-20 06:44:00,
2013-01-19 22:49:00,51.0,1.9,25.17,ENE,74,9.0,-999.0,13,-99.99,,,-99.99,dwt +perl,2013-01-20 06:49:00,
2013-01-19 22:54:00,51.1,0.3,25.17,East,79,3.0,-999.0,12,-99.99,,,-99.99,dwt +perl,2013-01-20 06:54:00,
2013-01-19 22:59:00,51.1,2.0,25.17,East,91,3.0,-999.0,13,-99.99,,,-99.99,dwt +perl,2013-01-20 06:59:00,
2013-01-19 23:04:00,51.1,2.0,25.17,East,95,16.0,-999.0,13,-99.99,,,-99.99,dwt +perl,2013-01-20 07:04:00,
2013-01-19 23:09:00,51.1,2.0,25.17,ESE,116,12.0,-999.0,13,-99.99,,,-99.99,dwt +perl,2013-01-20 07:09:00,
2013-01-19 23:14:00,51.1,2.0,25.17,ESE,102,12.0,-999.0,13,-99.99,,,-99.99,dwt +perl,2013-01-20 07:14:00,
2013-01-19 23:19:00,51.2,2.1,25.17,SE,142,11.0,-999.0,13,-99.99,,,-99.99,dwt +perl,2013-01-20 07:19:00,
2013-01-19 23:24:00,51.4,0.5,25.17,NW,310,6.0,-999.0,12,-99.99,,,-99.99,dwt +perl,2013-01-20 07:24:00,
2013-01-19 23:29:00,51.4,0.5,25.17,NE,52,6.0,-999.0,12,-99.99,,,-99.99,dwt +perl,2013-01-20 07:29:00,
2013-01-19 23:34:00,51.4,0.5,25.17,ESE,114,8.0,-999.0,12,-99.99,,,-99.99,dwt +perl,2013-01-20 07:34:00,
2013-01-19 23:39:00,51.5,0.6,25.16,ESE,106,9.0,-999.0,12,-99.99,,,-99.99,dwt +perl,2013-01-20 07:39:00,
2013-01-19 23:44:00,51.5,0.6,25.17,ESE,108,12.0,-999.0,12,-99.99,,,-99.99,dwt +perl,2013-01-20 07:44:00,
2013-01-19 23:49:00,51.5,0.6,25.16,ENE,59,12.0,-999.0,12,-99.99,,,-99.99,dwt +perl,2013-01-20 07:49:00,
2013-01-19 23:54:00,51.4,0.5,25.16,East,87,11.0,-999.0,12,-99.99,,,-99.99,dwt +perl,2013-01-20 07:54:00,
2013-01-19 23:59:00,51.5,0.6,25.16,ENE,68,12.0,-999.0,12,-99.99,,,-99.99,dwt +perl,2013-01-20 07:59:00,